Time;durP1;ratioP1;P1;durP2;ratioP2;P2;SDS_P1;SDS_P2;PMS_P1;PMS_P2;Temp;Humidity;BMP_temperature;BMP_pressure;BME280_temperature;BME280_humidity;BME280_pressure;Samples;Min_cycle;Max_cycle;Signal;HPM_P1;HPM_P2
2022/03/16 00:02:20;;;;;;;24.57;20.63;;;8.50;99.90;;;;;;5045880;28;20210;-76
2022/03/16 00:04:48;;;;;;;22.13;19.73;;;8.50;99.90;;;;;;5053832;28;20191;-76
2022/03/16 00:07:15;;;;;;;23.13;19.80;;;8.50;99.90;;;;;;5049312;28;20667;-74
2022/03/16 00:09:43;;;;;;;30.90;23.90;;;8.50;99.90;;;;;;5055621;28;20252;-75
2022/03/16 00:12:10;;;;;;;30.13;23.63;;;8.50;99.90;;;;;;5068045;28;20220;-75
2022/03/16 00:14:38;;;;;;;35.07;27.50;;;8.50;99.90;;;;;;5070440;28;20204;-74
2022/03/16 00:17:05;;;;;;;41.07;27.23;;;8.50;99.90;;;;;;5054049;28;20252;-75
2022/03/16 00:19:32;;;;;;;36.20;28.77;;;8.40;99.90;;;;;;5055196;28;20203;-76
2022/03/16 00:22:03;;;;;;;38.53;29.33;;;8.40;99.90;;;;;;5054852;28;20218;-75
2022/03/16 00:24:29;;;;;;;40.50;30.00;;;8.40;99.90;;;;;;5058425;28;20578;-75
2022/03/16 00:26:56;;;;;;;38.87;28.80;;;8.30;99.90;;;;;;5050034;28;20211;-75
2022/03/16 00:29:23;;;;;;;41.23;29.33;;;8.30;99.90;;;;;;5053607;28;20211;-75
2022/03/16 00:31:52;;;;;;;39.27;28.60;;;8.30;99.90;;;;;;5053450;28;20219;-73
2022/03/16 00:34:19;;;;;;;37.90;26.50;;;8.20;99.90;;;;;;5054583;28;20202;-75
2022/03/16 00:36:47;;;;;;;39.17;27.30;;;8.20;99.90;;;;;;5052711;28;20251;-74
2022/03/16 00:39:16;;;;;;;39.37;27.40;;;8.20;99.90;;;;;;5068257;28;20202;-74
2022/03/16 00:41:43;;;;;;;32.77;25.00;;;8.20;99.90;;;;;;5063990;28;20226;-75
2022/03/16 00:44:10;;;;;;;36.90;25.80;;;8.20;99.90;;;;;;5053480;28;20203;-75
2022/03/16 00:46:40;;;;;;;34.60;24.67;;;8.20;99.90;;;;;;5065469;28;20747;-75
2022/03/16 00:49:07;;;;;;;38.63;24.53;;;8.20;99.90;;;;;;5050252;28;20738;-76
2022/03/16 00:51:34;;;;;;;31.60;23.27;;;8.20;99.90;;;;;;5068716;28;20218;-75
2022/03/16 00:54:01;;;;;;;33.00;23.53;;;8.20;99.90;;;;;;5053281;28;20344;-75
2022/03/16 00:56:29;;;;;;;33.70;23.13;;;8.20;99.90;;;;;;5067068;28;20192;-75
2022/03/16 00:58:56;;;;;;;30.83;21.47;;;8.20;99.90;;;;;;5053858;28;20191;-75
2022/03/16 01:01:23;;;;;;;32.67;22.57;;;8.20;99.90;;;;;;5052816;28;20236;-75
2022/03/16 01:03:51;;;;;;;32.07;21.93;;;8.20;99.90;;;;;;5052998;28;20203;-75
2022/03/16 01:06:20;;;;;;;30.97;22.10;;;8.20;99.90;;;;;;5053773;28;20218;-75
2022/03/16 01:08:47;;;;;;;28.50;21.43;;;8.20;99.90;;;;;;5053002;28;20249;-75
2022/03/16 01:11:14;;;;;;;29.73;20.97;;;8.20;99.90;;;;;;5053052;28;20211;-75
2022/03/16 01:13:44;;;;;;;35.33;23.77;;;8.20;99.90;;;;;;5055820;28;20186;-75
2022/03/16 01:16:11;;;;;;;31.63;21.77;;;8.20;99.90;;;;;;5068104;28;20201;-74
2022/03/16 01:18:38;;;;;;;30.50;22.10;;;8.20;99.90;;;;;;5061791;28;20193;-75
2022/03/16 01:21:05;;;;;;;34.60;25.23;;;8.20;99.90;;;;;;5067188;28;20230;-75
2022/03/16 01:23:35;;;;;;;32.20;23.23;;;8.20;99.90;;;;;;5065632;28;20810;-75
2022/03/16 01:26:02;;;;;;;30.63;21.80;;;8.20;99.90;;;;;;5053804;28;20215;-75
2022/03/16 01:28:29;;;;;;;29.17;21.37;;;8.20;99.90;;;;;;5044774;28;20206;-75
2022/03/16 01:30:58;;;;;;;32.87;23.43;;;8.20;99.90;;;;;;5054641;28;20222;-75
2022/03/16 01:33:25;;;;;;;30.77;21.50;;;8.20;99.90;;;;;;5052694;28;20262;-75
2022/03/16 01:35:52;;;;;;;34.00;26.67;;;8.20;99.90;;;;;;5052032;28;20207;-75
2022/03/16 01:38:19;;;;;;;33.03;24.80;;;8.20;99.90;;;;;;5053096;28;20213;-75
2022/03/16 01:40:46;;;;;;;37.47;26.43;;;8.20;99.90;;;;;;5052103;28;20233;-76
2022/03/16 01:43:13;;;;;;;30.23;23.70;;;8.20;99.90;;;;;;5062198;28;20202;-75
2022/03/16 01:45:46;;;;;;;32.27;23.23;;;8.20;99.90;;;;;;5046676;28;20202;-75
2022/03/16 01:48:14;;;;;;;32.47;23.90;;;8.20;99.90;;;;;;5051843;28;20198;-75
2022/03/16 01:50:45;;;;;;;35.73;25.30;;;8.20;99.90;;;;;;5052827;28;20214;-75
2022/03/16 01:53:12;;;;;;;33.23;24.47;;;8.20;99.90;;;;;;5068806;28;20203;-76
2022/03/16 01:55:40;;;;;;;34.83;24.13;;;8.20;99.90;;;;;;5068611;28;20223;-75
2022/03/16 01:58:07;;;;;;;31.40;23.10;;;8.10;99.90;;;;;;5065787;28;20252;-75
2022/03/16 02:00:35;;;;;;;32.80;24.30;;;8.20;99.90;;;;;;5051617;28;20228;-76
2022/03/16 02:03:02;;;;;;;32.37;23.00;;;8.20;99.90;;;;;;5051691;28;20209;-75
2022/03/16 02:05:30;;;;;;;34.17;24.33;;;8.20;99.90;;;;;;5062475;28;20199;-75
2022/03/16 02:07:58;;;;;;;30.47;23.80;;;8.20;99.90;;;;;;5051064;28;20768;-76
2022/03/16 02:10:26;;;;;;;30.20;21.60;;;8.20;99.90;;;;;;5067293;28;20266;-75
2022/03/16 02:12:53;;;;;;;30.93;22.77;;;8.20;99.90;;;;;;5043451;28;20195;-75
2022/03/16 02:15:21;;;;;;;31.87;24.03;;;8.20;99.90;;;;;;5062182;28;20207;-75
2022/03/16 02:17:50;;;;;;;35.47;23.87;;;8.20;99.90;;;;;;5046581;28;20691;-75
2022/03/16 02:20:18;;;;;;;31.60;23.43;;;8.20;99.90;;;;;;5050850;28;20219;-76
2022/03/16 02:23:05;;;;;;;34.10;24.40;;;8.20;99.90;;;;;;5051365;28;20739;-75
2022/03/16 02:25:34;;;;;;;36.97;25.77;;;8.20;99.90;;;;;;5060375;28;20241;-76
2022/03/16 02:28:01;;;;;;;34.43;23.97;;;8.20;99.90;;;;;;5043490;28;20204;-75
2022/03/16 02:30:31;;;;;;;35.57;24.70;;;8.20;99.90;;;;;;5059826;28;20752;-76
2022/03/16 02:32:58;;;;;;;33.40;23.93;;;8.10;99.90;;;;;;5052949;28;20204;-75
2022/03/16 02:35:25;;;;;;;37.40;25.57;;;8.10;99.90;;;;;;5043445;28;20198;-75
2022/03/16 02:37:51;;;;;;;30.17;21.73;;;8.20;99.90;;;;;;5051751;28;20195;-75
2022/03/16 02:40:21;;;;;;;34.80;23.37;;;8.20;99.90;;;;;;5052290;28;20747;-74
2022/03/16 02:42:48;;;;;;;28.67;21.33;;;8.20;99.90;;;;;;5062008;28;20192;-75
2022/03/16 02:45:15;;;;;;;33.23;22.17;;;8.20;99.90;;;;;;5048633;28;20199;-76
2022/03/16 02:47:42;;;;;;;34.93;23.17;;;8.20;99.90;;;;;;5061486;28;20699;-75
2022/03/16 02:50:10;;;;;;;38.40;25.63;;;8.20;99.90;;;;;;5052282;28;20269;-76
2022/03/16 02:52:37;;;;;;;42.80;27.80;;;8.20;99.90;;;;;;5048545;28;20766;-76
2022/03/16 02:55:06;;;;;;;41.20;26.63;;;8.20;99.90;;;;;;5048143;28;20199;-74
2022/03/16 02:57:34;;;;;;;35.20;24.73;;;8.20;99.90;;;;;;5050315;28;20184;-75
2022/03/16 03:00:01;;;;;;;39.73;26.37;;;8.20;99.90;;;;;;5050963;28;20195;-75
2022/03/16 03:02:28;;;;;;;35.23;25.77;;;8.20;99.90;;;;;;5053410;28;20733;-75
2022/03/16 03:04:55;;;;;;;40.50;26.70;;;8.20;99.90;;;;;;5046454;28;20200;-75
2022/03/16 03:07:22;;;;;;;34.97;24.90;;;8.10;99.90;;;;;;5049846;28;20707;-76
2022/03/16 03:09:48;;;;;;;41.30;24.37;;;8.20;99.90;;;;;;5051215;28;20187;-78
2022/03/16 03:12:15;;;;;;;40.60;25.80;;;8.20;99.90;;;;;;5067426;28;20226;-77
2022/03/16 03:14:44;;;;;;;36.37;25.13;;;8.20;99.90;;;;;;5052856;28;20216;-77
2022/03/16 03:17:10;;;;;;;35.67;24.40;;;8.20;99.90;;;;;;5050424;28;20206;-77
2022/03/16 03:19:37;;;;;;;39.03;24.03;;;8.20;99.90;;;;;;5048980;28;20567;-78
2022/03/16 03:22:05;;;;;;;39.53;26.07;;;8.20;99.90;;;;;;5049461;28;20230;-77
2022/03/16 03:24:32;;;;;;;36.67;24.37;;;8.20;99.90;;;;;;5049687;28;20278;-77
2022/03/16 03:26:59;;;;;;;39.33;25.33;;;8.20;99.90;;;;;;5049254;28;20578;-75
2022/03/16 03:29:26;;;;;;;41.93;27.20;;;8.20;99.90;;;;;;5049493;28;20257;-75
2022/03/16 03:31:54;;;;;;;42.27;27.37;;;8.20;99.90;;;;;;5050325;28;20262;-76
2022/03/16 03:34:21;;;;;;;35.77;26.50;;;8.20;99.90;;;;;;5048444;28;20195;-76
2022/03/16 03:36:47;;;;;;;39.07;28.00;;;8.20;99.90;;;;;;5048864;28;20675;-75
2022/03/16 03:39:14;;;;;;;41.23;28.43;;;8.20;99.90;;;;;;5061437;28;20211;-75
2022/03/16 03:41:42;;;;;;;37.00;24.87;;;8.20;99.90;;;;;;5055674;28;20700;-75
2022/03/16 03:44:08;;;;;;;40.73;26.50;;;8.20;99.90;;;;;;5055314;28;20245;-76
2022/03/16 03:46:35;;;;;;;44.63;28.47;;;8.20;99.90;;;;;;5048101;28;20200;-78
2022/03/16 03:49:03;;;;;;;41.20;28.50;;;8.10;99.90;;;;;;5051998;28;20194;-78
2022/03/16 03:51:30;;;;;;;35.93;27.33;;;8.10;99.90;;;;;;5043414;28;20289;-77
2022/03/16 03:53:57;;;;;;;34.40;26.23;;;8.10;99.90;;;;;;5052310;28;20199;-77
2022/03/16 03:56:24;;;;;;;46.87;30.50;;;8.10;99.90;;;;;;5054056;28;20263;-77
2022/03/16 03:58:51;;;;;;;46.93;31.67;;;8.10;99.90;;;;;;5047968;28;20271;-77
2022/03/16 04:01:18;;;;;;;45.53;31.00;;;8.10;99.90;;;;;;5047401;28;20236;-77
2022/03/16 04:03:44;;;;;;;45.03;30.83;;;8.10;99.90;;;;;;5049662;28;20200;-77
2022/03/16 04:06:13;;;;;;;50.10;32.27;;;8.10;99.90;;;;;;5049523;28;20207;-77
2022/03/16 04:08:39;;;;;;;45.13;30.80;;;8.10;99.90;;;;;;5051657;28;20265;-79
2022/03/16 04:11:07;;;;;;;46.37;30.63;;;8.10;99.90;;;;;;5066655;28;20229;-79
2022/03/16 04:13:33;;;;;;;50.80;32.03;;;8.10;99.90;;;;;;5053475;28;20214;-78
2022/03/16 04:16:00;;;;;;;50.73;31.20;;;8.10;99.90;;;;;;5049100;28;20876;-83
2022/03/16 04:18:27;;;;;;;50.30;32.93;;;8.10;99.90;;;;;;5048876;28;20236;-77
2022/03/16 04:20:54;;;;;;;44.90;30.77;;;8.10;99.90;;;;;;5048481;28;20229;-77
2022/03/16 04:23:23;;;;;;;46.47;29.50;;;8.10;99.90;;;;;;5055390;28;20204;-77
2022/03/16 04:25:50;;;;;;;45.43;30.13;;;8.10;99.90;;;;;;5047540;28;20750;-78
2022/03/16 04:28:16;;;;;;;47.57;30.33;;;8.10;99.90;;;;;;5058541;28;20226;-78
2022/03/16 04:30:43;;;;;;;43.03;29.33;;;8.10;99.90;;;;;;5043187;28;20770;-78
2022/03/16 04:33:10;;;;;;;45.17;30.73;;;8.10;99.90;;;;;;5047611;28;20679;-78
2022/03/16 04:35:37;;;;;;;44.87;30.63;;;8.10;99.90;;;;;;5047660;28;20453;-78
2022/03/16 04:38:04;;;;;;;41.23;29.17;;;8.10;99.90;;;;;;5048488;28;20202;-79
2022/03/16 04:40:32;;;;;;;42.30;30.10;;;8.10;99.90;;;;;;5050700;28;20306;-79
2022/03/16 04:42:59;;;;;;;42.90;28.63;;;8.10;99.90;;;;;;5046892;28;20191;-78
2022/03/16 04:45:26;;;;;;;47.77;31.67;;;8.10;99.90;;;;;;5051151;28;20200;-78
2022/03/16 04:47:53;;;;;;;47.63;30.60;;;8.10;99.90;;;;;;5049932;28;20779;-78
2022/03/16 04:50:20;;;;;;;48.73;32.00;;;8.10;99.90;;;;;;5050706;28;20230;-78
2022/03/16 04:52:48;;;;;;;46.27;29.93;;;8.10;99.90;;;;;;5051610;28;20211;-79
2022/03/16 04:55:16;;;;;;;55.23;33.63;;;8.10;99.90;;;;;;5053791;28;20676;-80
2022/03/16 04:57:44;;;;;;;50.77;30.93;;;8.10;99.90;;;;;;5054387;28;20195;-79
2022/03/16 05:00:13;;;;;;;45.70;31.90;;;8.00;99.90;;;;;;5053276;28;20252;-78
2022/03/16 05:02:40;;;;;;;52.67;31.57;;;8.00;99.90;;;;;;5054679;28;20186;-78
2022/03/16 05:05:08;;;;;;;47.23;31.43;;;8.00;99.90;;;;;;5065065;28;20206;-78
2022/03/16 05:07:35;;;;;;;47.83;29.77;;;8.00;99.90;;;;;;5046570;28;20203;-78
2022/03/16 05:10:02;;;;;;;49.93;32.33;;;8.00;99.90;;;;;;5062909;28;20207;-78
2022/03/16 05:12:29;;;;;;;46.87;31.07;;;8.00;99.90;;;;;;5045338;28;20203;-79
2022/03/16 05:14:57;;;;;;;42.73;28.47;;;8.00;99.90;;;;;;5050091;28;20219;-79
2022/03/16 05:17:24;;;;;;;40.40;28.00;;;8.10;99.90;;;;;;5051888;28;20721;-77
2022/03/16 05:19:51;;;;;;;46.53;29.07;;;8.10;99.90;;;;;;5068836;28;20203;-77
2022/03/16 05:22:18;;;;;;;41.30;28.13;;;8.10;99.90;;;;;;5049354;28;20321;-77
2022/03/16 05:24:45;;;;;;;42.10;27.57;;;8.10;99.90;;;;;;5052675;28;20289;-78
2022/03/16 05:27:12;;;;;;;44.00;29.10;;;8.10;99.90;;;;;;5051899;28;20199;-78
2022/03/16 05:29:39;;;;;;;46.07;29.37;;;8.10;99.90;;;;;;5066820;28;20210;-78
2022/03/16 05:32:08;;;;;;;42.83;28.63;;;8.10;99.90;;;;;;5053635;28;20218;-78
2022/03/16 05:34:35;;;;;;;40.97;28.70;;;8.10;99.90;;;;;;5052533;28;20225;-78
2022/03/16 05:37:01;;;;;;;50.60;33.00;;;8.10;99.90;;;;;;5051793;28;20437;-77
2022/03/16 05:39:28;;;;;;;45.23;31.63;;;8.00;99.90;;;;;;5045818;28;20199;-78
2022/03/16 05:41:55;;;;;;;49.43;33.57;;;8.00;99.90;;;;;;5069185;28;20714;-78
2022/03/16 05:44:22;;;;;;;51.63;33.40;;;8.00;99.90;;;;;;5060245;28;20204;-78
2022/03/16 05:46:50;;;;;;;47.87;32.87;;;8.00;99.90;;;;;;5044501;28;20672;-79
2022/03/16 05:49:18;;;;;;;52.60;35.90;;;7.90;99.90;;;;;;5051700;28;20225;-78
2022/03/16 05:51:45;;;;;;;47.60;32.57;;;7.90;99.90;;;;;;5052604;28;20444;-78
2022/03/16 05:54:12;;;;;;;55.10;36.10;;;7.90;99.90;;;;;;5064771;28;20206;-78
2022/03/16 05:56:38;;;;;;;59.97;36.70;;;7.90;99.90;;;;;;5045534;28;20594;-78
2022/03/16 05:59:05;;;;;;;60.13;37.97;;;7.90;99.90;;;;;;5052377;28;20202;-78
2022/03/16 06:01:32;;;;;;;53.07;33.33;;;7.90;99.90;;;;;;5053481;28;20210;-78
2022/03/16 06:03:59;;;;;;;55.50;33.23;;;7.90;99.90;;;;;;5053161;28;20206;-78
2022/03/16 06:06:29;;;;;;;56.90;36.40;;;7.90;99.90;;;;;;5049615;28;20689;-77
2022/03/16 06:08:56;;;;;;;52.07;33.23;;;8.00;99.90;;;;;;5055860;28;20757;-78
2022/03/16 06:11:23;;;;;;;54.17;34.37;;;8.00;99.90;;;;;;5050165;28;20228;-78
2022/03/16 06:13:50;;;;;;;51.13;32.87;;;8.00;99.90;;;;;;5060245;28;20675;-78
2022/03/16 06:16:16;;;;;;;52.27;33.43;;;8.10;99.90;;;;;;5048193;28;20199;-78
2022/03/16 06:18:43;;;;;;;52.20;32.93;;;8.10;99.90;;;;;;5048148;28;20632;-78
2022/03/16 06:21:10;;;;;;;48.23;31.03;;;8.10;99.90;;;;;;5064355;28;20608;-78
2022/03/16 06:23:38;;;;;;;46.27;30.60;;;8.10;99.90;;;;;;5045041;28;20202;-78
2022/03/16 06:26:05;;;;;;;58.73;37.30;;;8.20;99.90;;;;;;5052772;28;20664;-78
2022/03/16 06:28:33;;;;;;;49.53;33.13;;;8.20;99.90;;;;;;5050568;28;20758;-78
2022/03/16 06:31:00;;;;;;;48.97;32.47;;;8.20;99.90;;;;;;5053652;28;20703;-78
2022/03/16 06:33:26;;;;;;;47.63;30.97;;;8.20;99.90;;;;;;5051548;28;20256;-78
2022/03/16 06:35:53;;;;;;;52.20;33.17;;;8.30;99.90;;;;;;5051824;28;20195;-78
2022/03/16 06:38:20;;;;;;;48.87;31.47;;;8.30;99.90;;;;;;5050587;28;20191;-78
2022/03/16 06:40:48;;;;;;;50.67;33.43;;;8.30;99.90;;;;;;5052918;28;20694;-78
2022/03/16 06:43:15;;;;;;;48.63;30.83;;;8.30;99.90;;;;;;5049484;28;20195;-78
2022/03/16 06:45:42;;;;;;;48.50;32.33;;;8.40;99.90;;;;;;5050585;28;20664;-78
2022/03/16 06:48:09;;;;;;;46.97;30.47;;;8.40;99.90;;;;;;5050556;28;20692;-78
2022/03/16 06:50:36;;;;;;;50.90;33.37;;;8.40;99.90;;;;;;5054733;28;20265;-78
2022/03/16 06:53:03;;;;;;;51.07;33.50;;;8.40;99.90;;;;;;5049913;28;20203;-78
2022/03/16 06:55:30;;;;;;;51.57;34.40;;;8.50;99.90;;;;;;5051400;28;20667;-79
2022/03/16 06:57:58;;;;;;;50.90;33.93;;;8.50;99.90;;;;;;5050729;28;20187;-78
2022/03/16 07:00:25;;;;;;;49.60;33.43;;;8.50;99.90;;;;;;5051918;28;20218;-78
2022/03/16 07:02:55;;;;;;;51.57;33.60;;;8.50;99.90;;;;;;5050967;28;20199;-79
2022/03/16 07:05:25;;;;;;;53.10;33.63;;;8.50;99.90;;;;;;5062576;28;20210;-78
2022/03/16 07:07:52;;;;;;;50.67;32.77;;;8.50;99.90;;;;;;5045677;28;20207;-78
2022/03/16 07:10:20;;;;;;;49.83;32.03;;;8.50;99.90;;;;;;5048388;28;20269;-78
2022/03/16 07:12:46;;;;;;;46.10;29.90;;;8.60;99.90;;;;;;5049202;28;20199;-78
2022/03/16 07:15:15;;;;;;;43.07;30.03;;;8.60;99.90;;;;;;5050717;28;20223;-76
2022/03/16 07:17:42;;;;;;;45.10;29.87;;;8.60;99.90;;;;;;5043383;28;20233;-78
2022/03/16 07:20:15;;;;;;;37.67;27.63;;;8.60;99.90;;;;;;5051883;28;20210;-78
2022/03/16 07:22:42;;;;;;;44.07;30.70;;;8.70;99.90;;;;;;5050057;28;20218;-78
2022/03/16 07:25:10;;;;;;;46.80;30.77;;;8.70;99.90;;;;;;5055716;28;20746;-78
2022/03/16 07:27:38;;;;;;;46.80;31.47;;;8.70;99.90;;;;;;5047367;28;20698;-78
2022/03/16 07:30:07;;;;;;;44.70;29.17;;;8.80;99.90;;;;;;5049284;28;20230;-78
2022/03/16 07:32:39;;;;;;;49.27;31.77;;;8.80;99.90;;;;;;5051529;28;20215;-78
2022/03/16 07:35:06;;;;;;;48.93;31.20;;;8.90;99.90;;;;;;5067127;28;20203;-78
2022/03/16 07:37:34;;;;;;;48.43;33.20;;;8.90;99.90;;;;;;5051126;28;20195;-77
2022/03/16 07:40:03;;;;;;;48.33;31.90;;;8.80;99.90;;;;;;5066413;28;20305;-78
2022/03/16 07:42:30;;;;;;;45.67;30.83;;;8.80;99.90;;;;;;5048028;28;20199;-76
2022/03/16 07:44:57;;;;;;;42.43;29.50;;;8.80;99.90;;;;;;5064332;28;20198;-78
2022/03/16 07:47:25;;;;;;;46.30;30.43;;;8.90;99.90;;;;;;5049421;28;20195;-78
2022/03/16 07:49:56;;;;;;;45.63;31.83;;;9.00;99.90;;;;;;5051677;28;20647;-78
2022/03/16 07:52:23;;;;;;;42.30;29.73;;;9.10;99.90;;;;;;5055947;28;20269;-78
2022/03/16 07:54:50;;;;;;;41.30;28.53;;;9.20;99.90;;;;;;5030826;28;20200;-78
2022/03/16 07:57:17;;;;;;;42.37;28.30;;;9.20;99.90;;;;;;5030862;28;20258;-79
2022/03/16 07:59:44;;;;;;;39.40;28.20;;;9.20;99.90;;;;;;5044008;28;20192;-78
2022/03/16 08:02:15;;;;;;;41.97;28.77;;;9.30;99.90;;;;;;5047892;28;20703;-78
2022/03/16 08:04:42;;;;;;;40.77;29.60;;;9.30;99.90;;;;;;5050114;28;20199;-76
2022/03/16 08:07:10;;;;;;;41.03;29.80;;;9.30;99.90;;;;;;5049211;28;20218;-78
2022/03/16 08:09:37;;;;;;;42.87;30.30;;;9.40;99.90;;;;;;5050239;28;20223;-77
2022/03/16 08:12:05;;;;;;;39.60;30.07;;;9.40;99.90;;;;;;5052879;28;20285;-77
2022/03/16 08:14:32;;;;;;;43.83;31.77;;;9.50;99.90;;;;;;5050474;28;20191;-77
2022/03/16 08:16:59;;;;;;;40.90;28.90;;;9.40;99.90;;;;;;5049579;28;20199;-78
2022/03/16 08:19:26;;;;;;;41.70;28.67;;;9.40;99.90;;;;;;5048221;28;20197;-78
2022/03/16 08:21:53;;;;;;;41.60;30.10;;;9.50;99.90;;;;;;5052405;28;20226;-78
2022/03/16 08:24:21;;;;;;;38.03;27.87;;;9.50;99.90;;;;;;5053956;28;20218;-79
2022/03/16 08:26:47;;;;;;;43.50;31.97;;;9.60;99.90;;;;;;5054070;28;20187;-78
2022/03/16 08:29:15;;;;;;;45.80;32.20;;;9.60;99.90;;;;;;5053256;28;20225;-79
2022/03/16 08:31:41;;;;;;;50.40;34.47;;;9.60;99.90;;;;;;5055374;28;20210;-78
2022/03/16 08:34:09;;;;;;;53.07;34.03;;;9.50;99.90;;;;;;5054640;28;20569;-78
2022/03/16 08:36:37;;;;;;;53.13;34.23;;;9.50;99.90;;;;;;5054522;28;20195;-78
2022/03/16 08:39:03;;;;;;;54.63;35.17;;;9.50;99.90;;;;;;5053676;28;20207;-78
2022/03/16 08:41:33;;;;;;;55.27;33.97;;;9.40;99.90;;;;;;5066571;28;20216;-79
2022/03/16 08:43:59;;;;;;;52.93;34.40;;;9.40;99.90;;;;;;5050111;28;20207;-78
2022/03/16 08:46:26;;;;;;;52.23;33.43;;;9.40;99.90;;;;;;5051612;28;20544;-78
2022/03/16 08:48:53;;;;;;;53.43;33.87;;;9.50;99.90;;;;;;5033528;28;20743;-78
2022/03/16 08:51:20;;;;;;;52.77;34.60;;;9.50;99.90;;;;;;5034609;28;20222;-78
2022/03/16 08:53:47;;;;;;;49.27;33.57;;;9.50;99.90;;;;;;5039729;28;20191;-78
2022/03/16 08:56:14;;;;;;;52.70;35.63;;;9.50;99.90;;;;;;5045107;28;20250;-78
2022/03/16 08:58:43;;;;;;;46.23;32.50;;;9.60;99.90;;;;;;5062649;28;20651;-78
2022/03/16 09:01:10;;;;;;;44.17;30.57;;;9.60;99.90;;;;;;5064075;28;20314;-78
2022/03/16 09:03:37;;;;;;;43.73;31.03;;;9.70;99.90;;;;;;5047812;28;20258;-79
2022/03/16 09:06:03;;;;;;;53.27;34.43;;;9.90;99.90;;;;;;5051257;28;20753;-78
2022/03/16 09:08:31;;;;;;;48.73;33.67;;;9.80;99.90;;;;;;5051409;28;20223;-78
2022/03/16 09:10:58;;;;;;;45.80;32.93;;;9.70;99.90;;;;;;5054320;28;20294;-79
2022/03/16 09:13:24;;;;;;;48.80;32.63;;;9.90;99.90;;;;;;5052198;28;20198;-79
2022/03/16 09:15:53;;;;;;;46.50;32.23;;;9.90;99.90;;;;;;5053655;28;20272;-78
2022/03/16 09:18:20;;;;;;;44.30;32.80;;;9.90;99.90;;;;;;5053242;28;20199;-78
2022/03/16 09:20:47;;;;;;;42.77;31.67;;;10.00;99.90;;;;;;5054045;28;20219;-78
2022/03/16 09:23:14;;;;;;;43.50;29.80;;;10.20;99.90;;;;;;5050044;28;20192;-77
2022/03/16 09:25:42;;;;;;;43.13;30.87;;;10.30;99.90;;;;;;5051046;28;20204;-78
2022/03/16 09:28:09;;;;;;;42.07;31.93;;;10.40;99.90;;;;;;5052715;28;20656;-78
2022/03/16 09:30:36;;;;;;;44.43;29.77;;;10.50;99.90;;;;;;5050506;28;20230;-78
2022/03/16 09:33:05;;;;;;;39.30;30.47;;;10.70;99.90;;;;;;5051237;28;20198;-79
2022/03/16 09:35:34;;;;;;;39.43;33.07;;;10.90;99.90;;;;;;5053120;28;20549;-78
2022/03/16 09:38:00;;;;;;;39.23;33.37;;;11.20;99.90;;;;;;5051640;28;20657;-79
2022/03/16 09:40:27;;;;;;;38.57;34.23;;;11.40;99.90;;;;;;5053707;28;20212;-77
2022/03/16 09:42:55;;;;;;;37.77;33.57;;;11.40;99.90;;;;;;5048166;28;20213;-79
2022/03/16 09:45:22;;;;;;;37.77;33.70;;;11.60;99.90;;;;;;5049787;28;20804;-79
2022/03/16 09:47:50;;;;;;;37.60;33.47;;;11.70;99.90;;;;;;5054572;28;20232;-78
2022/03/16 09:50:19;;;;;;;38.37;33.67;;;11.80;99.90;;;;;;5045590;28;20291;-78
2022/03/16 09:52:47;;;;;;;34.93;31.23;;;11.80;99.90;;;;;;5052409;28;20286;-79
2022/03/16 09:55:14;;;;;;;36.67;32.73;;;12.00;99.90;;;;;;5051125;28;20294;-78
2022/03/16 09:57:41;;;;;;;37.73;33.27;;;12.00;99.90;;;;;;5049083;28;20197;-79
2022/03/16 10:00:12;;;;;;;36.57;32.23;;;12.00;99.90;;;;;;5052409;28;20290;-78
2022/03/16 10:02:39;;;;;;;36.27;32.37;;;11.90;99.90;;;;;;5053504;28;20217;-78
2022/03/16 10:05:08;;;;;;;36.07;30.33;;;12.00;99.90;;;;;;5051856;28;20215;-78
2022/03/16 10:07:37;;;;;;;33.13;28.93;;;12.20;99.90;;;;;;5042858;28;20210;-77
2022/03/16 10:15:35;;;;;;;33.53;30.23;;;12.30;99.90;;;;;;5045903;28;20187;-79
2022/03/16 10:18:03;;;;;;;34.17;30.57;;;12.50;99.90;;;;;;5050839;28;20210;-79
2022/03/16 10:20:32;;;;;;;34.93;31.60;;;12.60;99.90;;;;;;5060424;28;20223;-79
2022/03/16 10:23:03;;;;;;;34.53;31.13;;;12.70;99.90;;;;;;5056269;28;20195;-78
2022/03/16 10:25:32;;;;;;;32.57;29.30;;;12.90;99.90;;;;;;5050862;28;20203;-78
2022/03/16 10:28:13;;;;;;;32.77;29.57;;;12.90;99.90;;;;;;5051536;28;20713;-78
2022/03/16 10:30:52;;;;;;;31.80;28.60;;;12.90;99.90;;;;;;5049177;28;20234;-78
2022/03/16 10:33:20;;;;;;;31.47;28.27;;;13.00;99.90;;;;;;5051489;28;20303;-79
2022/03/16 10:36:02;;;;;;;31.93;28.60;;;13.10;99.90;;;;;;5064767;28;20253;-79
2022/03/16 10:38:32;;;;;;;30.27;26.17;;;13.20;99.90;;;;;;5064406;28;20200;-78
2022/03/16 10:46:34;;;;;;;30.80;27.33;;;13.50;99.90;;;;;;5043749;28;20239;-79
2022/03/16 10:46:47;;;;;;;30.70;27.57;;;13.40;99.90;;;;;;5046138;28;20191;-79
2022/03/16 10:49:16;;;;;;;28.93;26.07;;;13.50;99.90;;;;;;5051242;28;20307;-80
2022/03/16 10:51:44;;;;;;;29.40;26.30;;;13.60;99.90;;;;;;5059294;28;20219;-78
2022/03/16 10:54:14;;;;;;;22.67;20.57;;;13.70;99.90;;;;;;5050180;28;20651;-79
2022/03/16 10:56:41;;;;;;;22.27;20.00;;;13.70;99.90;;;;;;5050460;28;20619;-79
2022/03/16 10:59:09;;;;;;;20.30;18.50;;;13.80;99.90;;;;;;5050045;28;20203;-78
2022/03/16 11:01:38;;;;;;;19.37;17.67;;;13.80;99.90;;;;;;5051170;28;20653;-78
2022/03/16 11:04:09;;;;;;;20.03;18.37;;;13.90;99.90;;;;;;5051495;28;20207;-79
2022/03/16 11:06:39;;;;;;;19.80;18.20;;;14.00;99.90;;;;;;5051819;28;20194;-78
2022/03/16 11:09:09;;;;;;;20.70;18.80;;;14.00;99.90;;;;;;5052665;28;20212;-79
2022/03/16 11:14:24;;;;;;;21.13;19.23;;;14.10;99.90;;;;;;5049104;28;20205;-80
2022/03/16 11:16:52;;;;;;;22.47;20.47;;;13.90;99.90;;;;;;5049945;28;20192;-79
2022/03/16 11:19:22;;;;;;;21.53;19.67;;;13.80;99.90;;;;;;5049873;28;20196;-79
2022/03/16 11:21:54;;;;;;;21.83;19.93;;;13.80;99.90;;;;;;5054816;28;20608;-78
2022/03/16 11:24:25;;;;;;;22.23;20.33;;;13.70;99.90;;;;;;5043400;28;20203;-79
2022/03/16 11:27:09;;;;;;;22.57;20.57;;;13.70;99.90;;;;;;5049921;28;20191;-78
2022/03/16 11:29:47;;;;;;;22.40;20.50;;;13.70;99.90;;;;;;5044728;28;20220;-78
2022/03/16 11:32:16;;;;;;;22.50;20.53;;;13.50;99.90;;;;;;5047199;28;20225;-79
2022/03/16 11:34:47;;;;;;;21.93;20.03;;;13.50;99.90;;;;;;5063279;28;20196;-78
2022/03/16 11:37:15;;;;;;;22.03;20.03;;;13.40;99.90;;;;;;5049421;28;20206;-78
2022/03/16 11:39:44;;;;;;;21.03;18.93;;;13.50;99.90;;;;;;5049919;28;20595;-80
2022/03/16 11:42:17;;;;;;;22.50;20.50;;;13.70;99.90;;;;;;5062308;28;20231;-79
2022/03/16 11:44:44;;;;;;;22.17;20.07;;;13.70;99.90;;;;;;5045781;28;20207;-78
2022/03/16 11:47:36;;;;;;;23.20;21.20;;;13.70;99.90;;;;;;5049013;28;20675;-78
2022/03/16 11:50:13;;;;;;;21.20;19.37;;;13.50;99.90;;;;;;5049672;28;20270;-79
2022/03/16 11:53:00;;;;;;;22.67;20.57;;;13.70;99.90;;;;;;5050521;28;20187;-77
2022/03/16 11:55:42;;;;;;;22.73;20.47;;;13.80;99.90;;;;;;5049632;28;20643;-79
2022/03/16 11:58:26;;;;;;;21.53;19.63;;;13.60;99.90;;;;;;5065366;28;20210;-78
2022/03/16 12:01:22;;;;;;;19.90;18.10;;;13.60;99.90;;;;;;5046885;28;20287;-79
2022/03/16 12:03:56;;;;;;;21.07;19.17;;;13.60;99.90;;;;;;5038402;28;20192;-79
2022/03/16 12:06:29;;;;;;;20.83;19.03;;;13.60;99.90;;;;;;5049729;28;20195;-78
2022/03/16 12:08:58;;;;;;;22.07;19.97;;;13.50;99.90;;;;;;5050893;28;20281;-78
2022/03/16 12:14:19;;;;;;;20.07;18.17;;;13.70;99.90;;;;;;5047367;28;20342;-79
2022/03/16 12:16:46;;;;;;;20.57;18.77;;;13.50;99.90;;;;;;5063238;28;20209;-78
2022/03/16 12:19:30;;;;;;;21.67;19.77;;;13.50;99.90;;;;;;5048823;28;20253;-79
2022/03/16 12:21:58;;;;;;;21.57;19.57;;;13.60;99.90;;;;;;5062530;28;20319;-79
2022/03/16 12:30:06;;;;;;;22.73;20.63;;;13.40;99.90;;;;;;5050124;28;20227;-79
2022/03/16 12:32:36;;;;;;;22.07;19.77;;;13.30;99.90;;;;;;5066457;28;20573;-79
2022/03/16 12:35:04;;;;;;;20.60;18.70;;;13.30;99.90;;;;;;5063414;28;20225;-78
2022/03/16 12:37:31;;;;;;;19.80;18.00;;;13.40;99.90;;;;;;5041705;28;20195;-78
2022/03/16 12:39:59;;;;;;;19.90;18.10;;;13.50;99.90;;;;;;5061538;28;20557;-78
2022/03/16 12:42:31;;;;;;;19.73;17.93;;;13.50;99.90;;;;;;5042731;28;20576;-79
2022/03/16 12:45:09;;;;;;;21.70;19.33;;;13.60;99.90;;;;;;5046933;28;20235;-78
2022/03/16 12:47:41;;;;;;;21.27;19.27;;;13.60;99.90;;;;;;5040293;28;20638;-79
2022/03/16 12:50:12;;;;;;;18.87;17.27;;;13.70;99.90;;;;;;5050358;28;20626;-78
2022/03/16 12:52:40;;;;;;;22.07;19.90;;;13.90;99.90;;;;;;5049543;28;20290;-79
2022/03/16 12:55:11;;;;;;;22.33;20.27;;;13.80;99.90;;;;;;5049079;28;20289;-78
2022/03/16 12:57:39;;;;;;;22.53;20.40;;;13.80;99.90;;;;;;5048630;28;20202;-79
2022/03/16 13:00:13;;;;;;;20.93;19.03;;;13.80;99.90;;;;;;5065562;28;20629;-79